sensor_id;sensor_type;location;lat;lon;timestamp;pressure;altitude;pressure_sealevel;temperature;humidity
26937;BME280;14495;48.116;11.676;2023-06-14T00:01:49;95085.44;;;9.85;100.00
26937;BME280;14495;48.116;11.676;2023-06-14T00:04:14;95082.41;;;9.78;100.00
26937;BME280;14495;48.116;11.676;2023-06-14T00:06:43;95084.09;;;9.79;100.00
26937;BME280;14495;48.116;11.676;2023-06-14T00:09:11;95091.47;;;9.73;100.00
26937;BME280;14495;48.116;11.676;2023-06-14T00:11:38;95090.63;;;9.59;100.00
26937;BME280;14495;48.116;11.676;2023-06-14T00:14:05;95085.09;;;9.64;100.00
26937;BME280;14495;48.116;11.676;2023-06-14T00:16:30;95087.91;;;9.48;100.00
26937;BME280;14495;48.116;11.676;2023-06-14T00:19:00;95084.06;;;9.54;100.00
26937;BME280;14495;48.116;11.676;2023-06-14T00:21:25;95092.69;;;9.41;100.00
26937;BME280;14495;48.116;11.676;2023-06-14T00:23:56;95082.97;;;9.31;100.00
26937;BME280;14495;48.116;11.676;2023-06-14T00:26:22;95080.59;;;9.40;100.00
26937;BME280;14495;48.116;11.676;2023-06-14T00:28:47;95078.47;;;9.33;100.00
26937;BME280;14495;48.116;11.676;2023-06-14T00:31:12;95078.47;;;9.20;100.00
26937;BME280;14495;48.116;11.676;2023-06-14T00:33:38;95080.97;;;9.21;100.00
26937;BME280;14495;48.116;11.676;2023-06-14T00:36:05;95078.56;;;9.18;100.00
26937;BME280;14495;48.116;11.676;2023-06-14T00:38:31;95076.97;;;9.16;100.00
26937;BME280;14495;48.116;11.676;2023-06-14T00:40:58;95078.53;;;9.05;100.00
26937;BME280;14495;48.116;11.676;2023-06-14T00:43:26;95083.84;;;9.04;100.00
26937;BME280;14495;48.116;11.676;2023-06-14T00:45:52;95087.19;;;9.06;100.00
26937;BME280;14495;48.116;11.676;2023-06-14T00:48:17;95085.25;;;8.95;100.00
26937;BME280;14495;48.116;11.676;2023-06-14T00:50:44;95077.94;;;8.87;100.00
26937;BME280;14495;48.116;11.676;2023-06-14T00:53:11;95081.38;;;8.88;100.00
26937;BME280;14495;48.116;11.676;2023-06-14T00:55:37;95079.19;;;8.82;100.00
26937;BME280;14495;48.116;11.676;2023-06-14T00:58:02;95086.44;;;8.77;100.00
26937;BME280;14495;48.116;11.676;2023-06-14T01:00:28;95081.31;;;8.75;100.00
26937;BME280;14495;48.116;11.676;2023-06-14T01:02:53;95082.06;;;8.77;100.00
26937;BME280;14495;48.116;11.676;2023-06-14T01:05:20;95081.31;;;8.75;100.00
26937;BME280;14495;48.116;11.676;2023-06-14T01:07:53;95085.22;;;8.82;100.00
26937;BME280;14495;48.116;11.676;2023-06-14T01:10:43;95083.56;;;8.81;100.00
26937;BME280;14495;48.116;11.676;2023-06-14T01:13:12;95087.09;;;8.80;100.00
26937;BME280;14495;48.116;11.676;2023-06-14T01:15:43;95085.53;;;8.78;100.00
26937;BME280;14495;48.116;11.676;2023-06-14T01:18:09;95085.63;;;8.76;100.00
26937;BME280;14495;48.116;11.676;2023-06-14T01:20:43;95084.50;;;8.66;100.00
26937;BME280;14495;48.116;11.676;2023-06-14T01:23:10;95082.03;;;8.64;100.00
26937;BME280;14495;48.116;11.676;2023-06-14T01:25:38;95079.00;;;8.43;100.00
26937;BME280;14495;48.116;11.676;2023-06-14T01:28:06;95076.03;;;8.49;100.00
26937;BME280;14495;48.116;11.676;2023-06-14T01:30:41;95074.25;;;8.50;100.00
26937;BME280;14495;48.116;11.676;2023-06-14T01:33:14;95073.59;;;8.46;100.00
26937;BME280;14495;48.116;11.676;2023-06-14T01:35:44;95072.78;;;8.46;100.00
26937;BME280;14495;48.116;11.676;2023-06-14T01:38:15;95070.34;;;8.43;100.00
26937;BME280;14495;48.116;11.676;2023-06-14T01:40:45;95071.63;;;8.36;100.00
26937;BME280;14495;48.116;11.676;2023-06-14T01:43:16;95074.16;;;8.37;100.00
26937;BME280;14495;48.116;11.676;2023-06-14T01:45:42;95064.88;;;8.19;100.00
26937;BME280;14495;48.116;11.676;2023-06-14T01:48:10;95065.53;;;8.22;100.00
26937;BME280;14495;48.116;11.676;2023-06-14T01:50:35;95064.78;;;8.20;100.00
26937;BME280;14495;48.116;11.676;2023-06-14T01:53:01;95062.28;;;8.19;100.00
26937;BME280;14495;48.116;11.676;2023-06-14T01:55:26;95064.72;;;8.07;100.00
26937;BME280;14495;48.116;11.676;2023-06-14T01:57:52;95064.53;;;7.96;100.00
26937;BME280;14495;48.116;11.676;2023-06-14T02:00:18;95059.81;;;7.88;100.00
26937;BME280;14495;48.116;11.676;2023-06-14T02:02:44;95062.97;;;7.79;100.00
26937;BME280;14495;48.116;11.676;2023-06-14T02:05:11;95069.16;;;7.77;100.00
26937;BME280;14495;48.116;11.676;2023-06-14T02:07:39;95067.88;;;7.84;100.00
26937;BME280;14495;48.116;11.676;2023-06-14T02:10:05;95066.19;;;7.83;100.00
26937;BME280;14495;48.116;11.676;2023-06-14T02:12:30;95066.09;;;7.84;100.00
26937;BME280;14495;48.116;11.676;2023-06-14T02:14:55;95062.56;;;7.85;100.00
26937;BME280;14495;48.116;11.676;2023-06-14T02:17:23;95065.66;;;7.78;100.00
26937;BME280;14495;48.116;11.676;2023-06-14T02:19:49;95069.16;;;7.77;100.00
26937;BME280;14495;48.116;11.676;2023-06-14T02:22:16;95068.41;;;7.74;100.00
26937;BME280;14495;48.116;11.676;2023-06-14T02:24:42;95061.00;;;7.68;100.00
26937;BME280;14495;48.116;11.676;2023-06-14T02:27:07;95061.53;;;7.73;100.00
26937;BME280;14495;48.116;11.676;2023-06-14T02:29:35;95060.25;;;7.66;100.00
26937;BME280;14495;48.116;11.676;2023-06-14T02:32:00;95063.03;;;7.78;100.00
26937;BME280;14495;48.116;11.676;2023-06-14T02:34:26;95063.13;;;7.76;100.00
26937;BME280;14495;48.116;11.676;2023-06-14T02:36:51;95061.34;;;7.62;100.00
26937;BME280;14495;48.116;11.676;2023-06-14T02:39:17;95063.03;;;7.63;100.00
26937;BME280;14495;48.116;11.676;2023-06-14T02:41:46;95067.69;;;7.72;100.00
26937;BME280;14495;48.116;11.676;2023-06-14T02:44:13;95074.38;;;7.77;100.00
26937;BME280;14495;48.116;11.676;2023-06-14T02:46:38;95068.16;;;7.79;100.00
26937;BME280;14495;48.116;11.676;2023-06-14T02:49:04;95069.72;;;7.82;100.00
26937;BME280;14495;48.116;11.676;2023-06-14T02:51:31;95064.03;;;7.75;100.00
26937;BME280;14495;48.116;11.676;2023-06-14T02:53:57;95069.00;;;7.80;100.00
26937;BME280;14495;48.116;11.676;2023-06-14T02:56:22;95070.84;;;7.78;100.00
26937;BME280;14495;48.116;11.676;2023-06-14T02:58:50;95070.38;;;7.71;100.00
26937;BME280;14495;48.116;11.676;2023-06-14T03:01:16;95074.44;;;7.75;100.00
26937;BME280;14495;48.116;11.676;2023-06-14T03:03:42;95073.06;;;7.69;100.00
26937;BME280;14495;48.116;11.676;2023-06-14T03:06:08;95077.44;;;7.69;100.00
26937;BME280;14495;48.116;11.676;2023-06-14T03:08:35;95076.13;;;7.62;100.00
26937;BME280;14495;48.116;11.676;2023-06-14T03:11:04;95075.00;;;7.66;100.00
26937;BME280;14495;48.116;11.676;2023-06-14T03:13:35;95085.09;;;7.42;100.00
26937;BME280;14495;48.116;11.676;2023-06-14T03:16:02;95089.81;;;7.49;100.00
26937;BME280;14495;48.116;11.676;2023-06-14T03:18:29;95085.28;;;7.53;100.00
26937;BME280;14495;48.116;11.676;2023-06-14T03:20:56;95091.59;;;7.49;100.00
26937;BME280;14495;48.116;11.676;2023-06-14T03:23:24;95098.94;;;7.42;100.00
26937;BME280;14495;48.116;11.676;2023-06-14T03:25:50;95102.97;;;7.32;100.00
26937;BME280;14495;48.116;11.676;2023-06-14T03:28:17;95099.56;;;7.46;100.00
26937;BME280;14495;48.116;11.676;2023-06-14T03:30:43;95099.31;;;7.50;100.00
26937;BME280;14495;48.116;11.676;2023-06-14T03:33:08;95098.13;;;7.56;100.00
26937;BME280;14495;48.116;11.676;2023-06-14T03:35:34;95097.00;;;7.60;100.00
26937;BME280;14495;48.116;11.676;2023-06-14T03:38:00;95097.28;;;7.55;100.00
26937;BME280;14495;48.116;11.676;2023-06-14T03:40:25;95093.63;;;7.44;100.00
26937;BME280;14495;48.116;11.676;2023-06-14T03:42:53;95102.06;;;7.33;100.00
26937;BME280;14495;48.116;11.676;2023-06-14T03:45:19;95100.78;;;7.54;100.00
26937;BME280;14495;48.116;11.676;2023-06-14T03:47:44;95095.88;;;7.50;100.00
26937;BME280;14495;48.116;11.676;2023-06-14T03:50:10;95100.50;;;7.45;100.00
26937;BME280;14495;48.116;11.676;2023-06-14T03:52:38;95097.00;;;7.60;100.00
26937;BME280;14495;48.116;11.676;2023-06-14T03:55:04;95101.66;;;7.69;100.00
26937;BME280;14495;48.116;11.676;2023-06-14T03:57:30;95106.84;;;7.69;100.00
26937;BME280;14495;48.116;11.676;2023-06-14T03:59:55;95115.41;;;7.71;100.00
26937;BME280;14495;48.116;11.676;2023-06-14T04:02:21;95117.66;;;7.92;100.00
26937;BME280;14495;48.116;11.676;2023-06-14T04:04:47;95115.53;;;7.99;100.00
26937;BME280;14495;48.116;11.676;2023-06-14T04:07:14;95124.25;;;8.12;100.00
26937;BME280;14495;48.116;11.676;2023-06-14T04:09:40;95130.38;;;8.25;100.00
26937;BME280;14495;48.116;11.676;2023-06-14T04:12:06;95139.22;;;8.37;100.00
26937;BME280;14495;48.116;11.676;2023-06-14T04:14:31;95136.81;;;8.34;100.00
26937;BME280;14495;48.116;11.676;2023-06-14T04:16:58;95142.56;;;8.39;100.00
26937;BME280;14495;48.116;11.676;2023-06-14T04:19:26;95142.22;;;8.60;100.00
26937;BME280;14495;48.116;11.676;2023-06-14T04:21:51;95141.44;;;8.72;100.00
26937;BME280;14495;48.116;11.676;2023-06-14T04:24:16;95145.63;;;8.75;100.00
26937;BME280;14495;48.116;11.676;2023-06-14T04:26:43;95139.91;;;8.82;100.00
26937;BME280;14495;48.116;11.676;2023-06-14T04:29:13;95146.03;;;8.96;100.00
26937;BME280;14495;48.116;11.676;2023-06-14T04:31:45;95154.47;;;8.99;100.00
26937;BME280;14495;48.116;11.676;2023-06-14T04:34:12;95156.03;;;9.16;100.00
26937;BME280;14495;48.116;11.676;2023-06-14T04:36:42;95153.03;;;9.22;100.00
26937;BME280;14495;48.116;11.676;2023-06-14T04:39:16;95153.91;;;9.36;100.00
26937;BME280;14495;48.116;11.676;2023-06-14T04:41:45;95154.03;;;9.47;100.00
26937;BME280;14495;48.116;11.676;2023-06-14T04:44:14;95148.84;;;9.60;100.00
26937;BME280;14495;48.116;11.676;2023-06-14T04:46:42;95144.06;;;9.66;100.00
26937;BME280;14495;48.116;11.676;2023-06-14T04:49:12;95149.41;;;9.78;100.00
26937;BME280;14495;48.116;11.676;2023-06-14T04:51:39;95148.78;;;9.87;100.00
26937;BME280;14495;48.116;11.676;2023-06-14T04:54:05;95155.56;;;10.02;100.00
26937;BME280;14495;48.116;11.676;2023-06-14T04:56:35;95156.31;;;10.04;100.00
26937;BME280;14495;48.116;11.676;2023-06-14T04:59:02;95155.59;;;10.28;100.00
26937;BME280;14495;48.116;11.676;2023-06-14T05:01:30;95159.28;;;10.38;100.00
26937;BME280;14495;48.116;11.676;2023-06-14T05:03:55;95161.75;;;10.53;100.00
26937;BME280;14495;48.116;11.676;2023-06-14T05:06:20;95164.69;;;10.61;100.00
26937;BME280;14495;48.116;11.676;2023-06-14T05:08:46;95159.00;;;10.80;100.00
26937;BME280;14495;48.116;11.676;2023-06-14T05:11:14;95166.78;;;10.93;100.00
26937;BME280;14495;48.116;11.676;2023-06-14T05:13:39;95172.81;;;11.06;100.00
26937;BME280;14495;48.116;11.676;2023-06-14T05:16:06;95168.78;;;11.26;100.00
26937;BME280;14495;48.116;11.676;2023-06-14T05:18:34;95162.25;;;11.32;100.00
26937;BME280;14495;48.116;11.676;2023-06-14T05:21:01;95167.84;;;11.51;100.00
26937;BME280;14495;48.116;11.676;2023-06-14T05:23:26;95169.03;;;11.58;100.00
26937;BME280;14495;48.116;11.676;2023-06-14T05:25:52;95173.38;;;11.71;100.00
26937;BME280;14495;48.116;11.676;2023-06-14T05:28:19;95166.16;;;11.86;100.00
26937;BME280;14495;48.116;11.676;2023-06-14T05:30:45;95168.72;;;11.98;100.00
26937;BME280;14495;48.116;11.676;2023-06-14T05:33:12;95170.44;;;12.11;100.00
26937;BME280;14495;48.116;11.676;2023-06-14T05:35:37;95174.50;;;12.26;100.00
26937;BME280;14495;48.116;11.676;2023-06-14T05:38:03;95167.59;;;12.25;100.00
26937;BME280;14495;48.116;11.676;2023-06-14T05:40:34;95165.22;;;12.45;100.00
26937;BME280;14495;48.116;11.676;2023-06-14T05:43:02;95175.25;;;12.73;100.00
26937;BME280;14495;48.116;11.676;2023-06-14T05:45:30;95171.53;;;12.76;100.00
26937;BME280;14495;48.116;11.676;2023-06-14T05:47:58;95183.22;;;12.94;100.00
26937;BME280;14495;48.116;11.676;2023-06-14T05:50:23;95175.94;;;12.98;100.00
26937;BME280;14495;48.116;11.676;2023-06-14T05:52:49;95173.28;;;13.09;100.00
26937;BME280;14495;48.116;11.676;2023-06-14T05:55:16;95170.75;;;13.30;100.00
26937;BME280;14495;48.116;11.676;2023-06-14T05:57:41;95170.69;;;13.85;100.00
26937;BME280;14495;48.116;11.676;2023-06-14T06:00:07;95175.84;;;15.21;90.86
26937;BME280;14495;48.116;11.676;2023-06-14T06:02:39;95167.72;;;17.34;78.36
26937;BME280;14495;48.116;11.676;2023-06-14T06:05:04;95162.78;;;19.50;66.92
26937;BME280;14495;48.116;11.676;2023-06-14T06:07:31;95157.13;;;21.41;58.32
26937;BME280;14495;48.116;11.676;2023-06-14T06:09:56;95164.75;;;22.45;53.98
26937;BME280;14495;48.116;11.676;2023-06-14T06:12:21;95169.59;;;21.40;54.14
26937;BME280;14495;48.116;11.676;2023-06-14T06:14:47;95171.06;;;22.96;52.80
26937;BME280;14495;48.116;11.676;2023-06-14T06:17:12;95166.22;;;23.81;49.58
26937;BME280;14495;48.116;11.676;2023-06-14T06:19:40;95172.56;;;24.95;46.68
26937;BME280;14495;48.116;11.676;2023-06-14T06:22:06;95175.94;;;25.38;46.55
26937;BME280;14495;48.116;11.676;2023-06-14T06:24:32;95173.91;;;26.02;46.20
26937;BME280;14495;48.116;11.676;2023-06-14T06:26:59;95177.22;;;26.24;43.27
26937;BME280;14495;48.116;11.676;2023-06-14T06:29:25;95182.13;;;27.41;42.41
26937;BME280;14495;48.116;11.676;2023-06-14T06:31:53;95179.97;;;26.77;40.89
26937;BME280;14495;48.116;11.676;2023-06-14T06:34:18;95181.19;;;26.88;43.72
26937;BME280;14495;48.116;11.676;2023-06-14T06:36:45;95184.22;;;27.38;40.64
26937;BME280;14495;48.116;11.676;2023-06-14T06:39:10;95184.41;;;27.89;41.77
26937;BME280;14495;48.116;11.676;2023-06-14T06:41:37;95177.31;;;28.97;38.89
26937;BME280;14495;48.116;11.676;2023-06-14T06:44:07;95187.69;;;28.36;38.48
26937;BME280;14495;48.116;11.676;2023-06-14T06:46:35;95185.41;;;27.43;38.89
26937;BME280;14495;48.116;11.676;2023-06-14T06:49:00;95191.31;;;26.66;38.59
26937;BME280;14495;48.116;11.676;2023-06-14T06:51:26;95193.19;;;28.09;37.45
26937;BME280;14495;48.116;11.676;2023-06-14T06:53:54;95192.81;;;27.54;37.55
26937;BME280;14495;48.116;11.676;2023-06-14T06:56:21;95191.69;;;28.20;36.94
26937;BME280;14495;48.116;11.676;2023-06-14T06:58:49;95192.25;;;28.67;36.44
26937;BME280;14495;48.116;11.676;2023-06-14T07:01:14;95198.88;;;27.88;36.83
26937;BME280;14495;48.116;11.676;2023-06-14T07:03:42;95195.19;;;26.57;38.84
26937;BME280;14495;48.116;11.676;2023-06-14T07:06:08;95197.06;;;26.70;38.89
26937;BME280;14495;48.116;11.676;2023-06-14T07:08:33;95188.94;;;28.65;36.00
26937;BME280;14495;48.116;11.676;2023-06-14T07:11:01;95195.75;;;28.36;36.05
26937;BME280;14495;48.116;11.676;2023-06-14T07:13:27;95197.06;;;26.56;37.61
26937;BME280;14495;48.116;11.676;2023-06-14T07:16:00;95195.09;;;27.57;36.79
26937;BME280;14495;48.116;11.676;2023-06-14T07:18:28;95206.53;;;27.06;36.80
26937;BME280;14495;48.116;11.676;2023-06-14T07:20:54;95206.94;;;26.36;37.15
26937;BME280;14495;48.116;11.676;2023-06-14T07:23:21;95205.97;;;25.89;39.30
26937;BME280;14495;48.116;11.676;2023-06-14T07:25:46;95205.91;;;25.75;37.31
26937;BME280;14495;48.116;11.676;2023-06-14T07:28:16;95214.28;;;26.07;37.46
26937;BME280;14495;48.116;11.676;2023-06-14T07:30:42;95213.75;;;27.12;36.43
26937;BME280;14495;48.116;11.676;2023-06-14T07:33:09;95219.16;;;26.78;36.19
26937;BME280;14495;48.116;11.676;2023-06-14T07:35:35;95215.56;;;25.76;37.46
26937;BME280;14495;48.116;11.676;2023-06-14T07:38:00;95210.41;;;26.23;38.31
26937;BME280;14495;48.116;11.676;2023-06-14T07:40:26;95215.13;;;27.48;35.24
26937;BME280;14495;48.116;11.676;2023-06-14T07:42:51;95217.69;;;27.03;34.37
26937;BME280;14495;48.116;11.676;2023-06-14T07:45:19;95221.75;;;27.38;34.11
26937;BME280;14495;48.116;11.676;2023-06-14T07:47:44;95217.06;;;27.00;35.00
26937;BME280;14495;48.116;11.676;2023-06-14T07:50:10;95222.59;;;27.06;36.98
26937;BME280;14495;48.116;11.676;2023-06-14T07:52:36;95214.13;;;27.35;35.09
26937;BME280;14495;48.116;11.676;2023-06-14T07:55:02;95220.59;;;27.80;35.10
26937;BME280;14495;48.116;11.676;2023-06-14T07:57:27;95218.06;;;28.37;32.33
26937;BME280;14495;48.116;11.676;2023-06-14T07:59:53;95209.19;;;29.37;32.38
26937;BME280;14495;48.116;11.676;2023-06-14T08:02:21;95216.06;;;29.14;31.97
26937;BME280;14495;48.116;11.676;2023-06-14T08:04:47;95220.94;;;27.18;32.27
26937;BME280;14495;48.116;11.676;2023-06-14T08:07:14;95218.53;;;25.88;33.81
26937;BME280;14495;48.116;11.676;2023-06-14T08:09:41;95219.53;;;25.39;34.57
26937;BME280;14495;48.116;11.676;2023-06-14T08:12:07;95207.25;;;24.60;35.32
26937;BME280;14495;48.116;11.676;2023-06-14T08:14:35;95217.81;;;23.73;35.93
26937;BME280;14495;48.116;11.676;2023-06-14T08:17:00;95219.59;;;23.51;35.79
26937;BME280;14495;48.116;11.676;2023-06-14T08:19:25;95215.41;;;22.36;37.08
26937;BME280;14495;48.116;11.676;2023-06-14T08:22:00;95225.31;;;22.19;37.39
26937;BME280;14495;48.116;11.676;2023-06-14T08:24:26;95226.34;;;21.56;40.76
26937;BME280;14495;48.116;11.676;2023-06-14T08:26:53;95224.47;;;21.65;38.96
26937;BME280;14495;48.116;11.676;2023-06-14T08:29:19;95232.72;;;21.78;38.56
26937;BME280;14495;48.116;11.676;2023-06-14T08:31:46;95232.56;;;21.79;39.11
26937;BME280;14495;48.116;11.676;2023-06-14T08:34:12;95230.59;;;22.05;38.40
26937;BME280;14495;48.116;11.676;2023-06-14T08:36:37;95234.53;;;22.09;36.89
26937;BME280;14495;48.116;11.676;2023-06-14T08:39:04;95237.00;;;21.87;36.72
26937;BME280;14495;48.116;11.676;2023-06-14T08:41:31;95237.91;;;22.03;36.70
26937;BME280;14495;48.116;11.676;2023-06-14T08:44:05;95238.97;;;22.16;38.66
26937;BME280;14495;48.116;11.676;2023-06-14T08:46:35;95250.28;;;22.18;39.31
26937;BME280;14495;48.116;11.676;2023-06-14T08:49:02;95247.44;;;22.20;38.16
26937;BME280;14495;48.116;11.676;2023-06-14T08:51:31;95240.63;;;22.49;38.64
26937;BME280;14495;48.116;11.676;2023-06-14T08:54:16;95238.34;;;23.13;40.67
26937;BME280;14495;48.116;11.676;2023-06-14T08:56:46;95232.06;;;22.76;37.04
26937;BME280;14495;48.116;11.676;2023-06-14T08:59:16;95234.91;;;22.52;38.28
26937;BME280;14495;48.116;11.676;2023-06-14T09:01:46;95227.66;;;22.46;36.78
26937;BME280;14495;48.116;11.676;2023-06-14T09:04:12;95236.78;;;22.20;37.06
26937;BME280;14495;48.116;11.676;2023-06-14T09:06:38;95236.31;;;22.16;36.55
26937;BME280;14495;48.116;11.676;2023-06-14T09:09:03;95239.72;;;22.02;36.95
26937;BME280;14495;48.116;11.676;2023-06-14T09:11:30;95234.31;;;22.18;37.42
26937;BME280;14495;48.116;11.676;2023-06-14T09:13:56;95234.34;;;22.42;37.57
26937;BME280;14495;48.116;11.676;2023-06-14T09:16:21;95236.63;;;22.45;37.97
26937;BME280;14495;48.116;11.676;2023-06-14T09:18:47;95242.59;;;22.24;37.67
26937;BME280;14495;48.116;11.676;2023-06-14T09:21:17;95241.16;;;22.13;38.65
26937;BME280;14495;48.116;11.676;2023-06-14T09:23:44;95239.53;;;22.58;38.37
26937;BME280;14495;48.116;11.676;2023-06-14T09:26:12;95236.69;;;22.97;37.84
26937;BME280;14495;48.116;11.676;2023-06-14T09:28:45;95240.75;;;23.08;37.57
26937;BME280;14495;48.116;11.676;2023-06-14T09:31:12;95234.97;;;22.82;38.96
26937;BME280;14495;48.116;11.676;2023-06-14T09:33:38;95247.94;;;21.61;39.53
26937;BME280;14495;48.116;11.676;2023-06-14T09:36:04;95243.91;;;21.17;40.58
26937;BME280;14495;48.116;11.676;2023-06-14T09:38:30;95238.09;;;21.22;40.23
26937;BME280;14495;48.116;11.676;2023-06-14T09:40:58;95251.44;;;20.89;40.05
26937;BME280;14495;48.116;11.676;2023-06-14T09:43:24;95254.56;;;20.60;40.96
26937;BME280;14495;48.116;11.676;2023-06-14T09:45:51;95254.91;;;20.48;40.91
26937;BME280;14495;48.116;11.676;2023-06-14T09:48:17;95254.94;;;20.90;41.27
26937;BME280;14495;48.116;11.676;2023-06-14T09:50:49;95248.41;;;21.65;40.18
26937;BME280;14495;48.116;11.676;2023-06-14T09:53:15;95253.06;;;21.62;40.15
26937;BME280;14495;48.116;11.676;2023-06-14T09:55:44;95250.53;;;21.13;39.56
26937;BME280;14495;48.116;11.676;2023-06-14T09:58:11;95256.59;;;20.74;39.79
26937;BME280;14495;48.116;11.676;2023-06-14T10:00:42;95262.38;;;20.45;40.65
26937;BME280;14495;48.116;11.676;2023-06-14T10:03:16;95249.03;;;21.27;40.18
26937;BME280;14495;48.116;11.676;2023-06-14T10:05:47;95242.19;;;21.33;39.86
26937;BME280;14495;48.116;11.676;2023-06-14T10:08:15;95252.38;;;21.13;40.25
26937;BME280;14495;48.116;11.676;2023-06-14T10:10:42;95248.47;;;20.84;40.60
26937;BME280;14495;48.116;11.676;2023-06-14T10:13:08;95246.97;;;20.65;40.86
26937;BME280;14495;48.116;11.676;2023-06-14T10:15:56;95242.97;;;20.69;40.33
26937;BME280;14495;48.116;11.676;2023-06-14T10:18:48;95240.16;;;21.51;40.09
26937;BME280;14495;48.116;11.676;2023-06-14T10:24:07;95245.88;;;21.15;40.08
26937;BME280;14495;48.116;11.676;2023-06-14T10:26:34;95249.94;;;20.87;39.27
26937;BME280;14495;48.116;11.676;2023-06-14T10:29:08;95248.16;;;20.62;40.32
26937;BME280;14495;48.116;11.676;2023-06-14T10:31:44;95254.28;;;20.63;40.85
26937;BME280;14495;48.116;11.676;2023-06-14T10:34:27;95242.16;;;20.93;39.53
26937;BME280;14495;48.116;11.676;2023-06-14T10:37:04;95242.97;;;20.85;39.54
26937;BME280;14495;48.116;11.676;2023-06-14T10:39:50;95238.00;;;20.99;40.11
26937;BME280;14495;48.116;11.676;2023-06-14T10:42:18;95248.06;;;21.12;39.92
26937;BME280;14495;48.116;11.676;2023-06-14T10:45:00;95235.47;;;21.93;39.33
26937;BME280;14495;48.116;11.676;2023-06-14T10:47:35;95233.56;;;22.33;39.37
26937;BME280;14495;48.116;11.676;2023-06-14T10:50:09;95230.69;;;22.11;38.05
26937;BME280;14495;48.116;11.676;2023-06-14T10:52:40;95235.41;;;22.32;38.85
26937;BME280;14495;48.116;11.676;2023-06-14T10:57:48;95242.13;;;21.57;41.12
26937;BME280;14495;48.116;11.676;2023-06-14T11:00:18;95234.41;;;22.02;40.84
26937;BME280;14495;48.116;11.676;2023-06-14T11:03:03;95232.00;;;23.00;40.99
26937;BME280;14495;48.116;11.676;2023-06-14T11:11:05;95238.56;;;22.36;40.12
26937;BME280;14495;48.116;11.676;2023-06-14T11:13:31;95241.50;;;22.10;39.61
26937;BME280;14495;48.116;11.676;2023-06-14T11:16:00;95226.03;;;22.97;40.46
26937;BME280;14495;48.116;11.676;2023-06-14T11:18:25;95232.13;;;23.51;37.47
26937;BME280;14495;48.116;11.676;2023-06-14T11:20:53;95238.09;;;23.08;37.87
26937;BME280;14495;48.116;11.676;2023-06-14T11:23:18;95230.97;;;22.48;39.09
26937;BME280;14495;48.116;11.676;2023-06-14T11:25:50;95233.97;;;22.68;38.90
26937;BME280;14495;48.116;11.676;2023-06-14T11:28:15;95240.78;;;23.38;37.80
26937;BME280;14495;48.116;11.676;2023-06-14T11:30:42;95241.88;;;23.29;37.66
26937;BME280;14495;48.116;11.676;2023-06-14T11:33:10;95239.16;;;22.99;37.35
26937;BME280;14495;48.116;11.676;2023-06-14T11:35:36;95237.72;;;23.11;38.13
26937;BME280;14495;48.116;11.676;2023-06-14T11:38:02;95227.50;;;23.60;36.97
26937;BME280;14495;48.116;11.676;2023-06-14T11:40:27;95226.38;;;23.84;36.67
26937;BME280;14495;48.116;11.676;2023-06-14T11:43:00;95224.94;;;23.51;37.00
26937;BME280;14495;48.116;11.676;2023-06-14T11:45:26;95219.28;;;23.76;37.36
26937;BME280;14495;48.116;11.676;2023-06-14T11:47:57;95219.81;;;23.35;36.68
26937;BME280;14495;48.116;11.676;2023-06-14T11:50:24;95220.38;;;23.15;38.16
26937;BME280;14495;48.116;11.676;2023-06-14T11:52:58;95212.84;;;23.85;37.50
26937;BME280;14495;48.116;11.676;2023-06-14T11:55:46;95221.97;;;23.61;36.84
26937;BME280;14495;48.116;11.676;2023-06-14T11:58:13;95219.50;;;24.33;37.07
26937;BME280;14495;48.116;11.676;2023-06-14T12:00:38;95230.03;;;23.98;37.90
26937;BME280;14495;48.116;11.676;2023-06-14T12:03:03;95221.53;;;24.09;36.13
26937;BME280;14495;48.116;11.676;2023-06-14T12:05:29;95221.72;;;23.86;35.27
26937;BME280;14495;48.116;11.676;2023-06-14T12:07:58;95222.56;;;24.29;35.00
26937;BME280;14495;48.116;11.676;2023-06-14T12:10:26;95223.56;;;24.50;34.41
26937;BME280;14495;48.116;11.676;2023-06-14T12:12:56;95224.09;;;24.39;36.52
26937;BME280;14495;48.116;11.676;2023-06-14T12:15:22;95215.59;;;24.28;35.81
26937;BME280;14495;48.116;11.676;2023-06-14T12:17:47;95223.06;;;24.40;35.50
26937;BME280;14495;48.116;11.676;2023-06-14T12:20:16;95216.09;;;23.66;35.59
26937;BME280;14495;48.116;11.676;2023-06-14T12:22:55;95218.97;;;23.49;35.72
26937;BME280;14495;48.116;11.676;2023-06-14T12:25:26;95212.91;;;22.58;37.15
26937;BME280;14495;48.116;11.676;2023-06-14T12:27:55;95215.09;;;23.37;36.63
26937;BME280;14495;48.116;11.676;2023-06-14T12:30:23;95210.41;;;24.05;35.33
26937;BME280;14495;48.116;11.676;2023-06-14T12:32:48;95206.38;;;24.53;34.32
26937;BME280;14495;48.116;11.676;2023-06-14T12:35:16;95207.38;;;23.57;35.35
26937;BME280;14495;48.116;11.676;2023-06-14T12:37:41;95198.13;;;23.23;35.82
26937;BME280;14495;48.116;11.676;2023-06-14T12:40:07;95205.13;;;23.76;37.79
26937;BME280;14495;48.116;11.676;2023-06-14T12:42:33;95212.22;;;23.83;35.09
26937;BME280;14495;48.116;11.676;2023-06-14T12:44:59;95204.88;;;24.50;35.01
26937;BME280;14495;48.116;11.676;2023-06-14T12:47:25;95212.75;;;24.15;37.68
26937;BME280;14495;48.116;11.676;2023-06-14T12:49:50;95215.69;;;23.32;36.44
26937;BME280;14495;48.116;11.676;2023-06-14T12:52:17;95214.59;;;23.27;37.44
26937;BME280;14495;48.116;11.676;2023-06-14T12:54:43;95219.16;;;23.48;37.88
26937;BME280;14495;48.116;11.676;2023-06-14T12:57:08;95214.03;;;23.98;35.84
26937;BME280;14495;48.116;11.676;2023-06-14T12:59:35;95214.22;;;24.39;35.24
26937;BME280;14495;48.116;11.676;2023-06-14T13:02:13;95209.28;;;24.58;34.10
26937;BME280;14495;48.116;11.676;2023-06-14T13:04:41;95210.53;;;25.12;34.38